Time;durP1;ratioP1;P1;durP2;ratioP2;P2;SDS_P1;SDS_P2;PMS_P1;PMS_P2;Temp;Humidity;BMP_temperature;BMP_pressure;BME280_temperature;BME280_humidity;BME280_pressure;Samples;Min_cycle;Max_cycle;Signal;HPM_P1;HPM_P2
2022/07/22 00:01:11;;;;;;;18.27;4.55;;;16.30;99.90;;;;;;5031642;28;20056;-60
2022/07/22 00:03:37;;;;;;;10.93;3.95;;;16.30;99.90;;;;;;5036957;28;20044;-60
2022/07/22 00:06:03;;;;;;;13.43;3.88;;;16.30;99.90;;;;;;5021718;28;20029;-60
2022/07/22 00:08:29;;;;;;;14.65;3.88;;;16.30;99.90;;;;;;5036616;28;20045;-61
2022/07/22 00:10:55;;;;;;;13.32;3.28;;;16.30;99.90;;;;;;5033754;28;20040;-60
2022/07/22 00:13:21;;;;;;;12.40;3.30;;;16.30;99.90;;;;;;5036398;28;20357;-59
2022/07/22 00:15:46;;;;;;;16.85;3.22;;;16.30;99.90;;;;;;5023550;28;20075;-60
2022/07/22 00:18:12;;;;;;;14.75;3.50;;;16.30;99.90;;;;;;5036999;28;20507;-61
2022/07/22 00:20:38;;;;;;;10.63;3.22;;;16.20;99.90;;;;;;5016786;28;20087;-60
2022/07/22 00:23:04;;;;;;;9.13;2.90;;;16.20;99.90;;;;;;5036643;28;20080;-60
2022/07/22 00:25:30;;;;;;;15.52;3.67;;;16.20;99.90;;;;;;5033278;28;20407;-61
2022/07/22 00:27:56;;;;;;;8.98;3.03;;;16.20;99.90;;;;;;5039282;28;20049;-60
2022/07/22 00:30:22;;;;;;;10.82;2.80;;;16.20;99.90;;;;;;5032183;28;20044;-60
2022/07/22 00:32:48;;;;;;;13.23;3.10;;;16.20;99.90;;;;;;5019565;28;20076;-60
2022/07/22 00:35:13;;;;;;;12.82;2.78;;;16.20;99.90;;;;;;5021945;28;20060;-61
2022/07/22 00:37:39;;;;;;;7.18;2.85;;;16.20;99.90;;;;;;5036660;28;20045;-61
2022/07/22 00:40:05;;;;;;;10.45;2.78;;;16.20;99.90;;;;;;5031580;28;20519;-61
2022/07/22 00:42:31;;;;;;;10.55;2.63;;;16.20;99.90;;;;;;5016065;28;20050;-60
2022/07/22 00:44:57;;;;;;;11.10;3.08;;;16.20;99.90;;;;;;5031909;28;20482;-60
2022/07/22 00:47:23;;;;;;;13.23;3.28;;;16.20;99.90;;;;;;5034254;28;20041;-59
2022/07/22 00:49:49;;;;;;;10.27;2.67;;;16.30;99.90;;;;;;5038872;28;20178;-60
2022/07/22 00:52:15;;;;;;;13.55;2.72;;;16.20;99.90;;;;;;5034410;28;20487;-61
2022/07/22 00:54:41;;;;;;;12.18;3.20;;;16.20;99.90;;;;;;5033099;28;20117;-60
2022/07/22 00:57:07;;;;;;;10.98;2.78;;;16.20;99.90;;;;;;5028173;28;20073;-61
2022/07/22 00:59:33;;;;;;;9.70;3.20;;;16.20;99.90;;;;;;5031914;28;20078;-60
2022/07/22 01:01:59;;;;;;;15.18;3.05;;;16.20;99.90;;;;;;5034658;28;20064;-61
2022/07/22 01:04:25;;;;;;;15.02;3.00;;;16.20;99.90;;;;;;5038151;28;20053;-60
2022/07/22 01:06:51;;;;;;;8.20;2.70;;;16.20;99.90;;;;;;5038230;28;20737;-59
2022/07/22 01:09:16;;;;;;;9.50;2.95;;;16.20;99.90;;;;;;5033795;28;20125;-60
2022/07/22 01:11:42;;;;;;;9.80;2.90;;;16.20;99.90;;;;;;5035055;28;20051;-61
2022/07/22 01:14:09;;;;;;;7.80;2.80;;;16.20;99.90;;;;;;5034339;28;20048;-60
2022/07/22 01:16:35;;;;;;;14.57;3.08;;;16.20;99.90;;;;;;5036116;28;20048;-60
2022/07/22 01:19:02;;;;;;;7.72;2.88;;;16.20;99.90;;;;;;5037508;28;20037;-61
2022/07/22 01:21:28;;;;;;;9.95;3.13;;;16.20;99.90;;;;;;5036421;28;20049;-60
2022/07/22 01:23:54;;;;;;;11.63;2.42;;;16.20;99.90;;;;;;5034129;28;20045;-60
2022/07/22 01:26:20;;;;;;;9.55;2.55;;;16.20;99.90;;;;;;5029249;28;20075;-60
2022/07/22 01:28:46;;;;;;;14.00;3.05;;;16.20;99.90;;;;;;4989729;28;20130;-60
2022/07/22 01:31:11;;;;;;;9.57;2.70;;;16.20;99.90;;;;;;5018486;28;20036;-60
2022/07/22 01:33:37;;;;;;;11.18;2.63;;;16.10;99.90;;;;;;5010842;28;20049;-60
2022/07/22 01:36:04;;;;;;;8.80;2.50;;;16.10;99.90;;;;;;5034676;28;20044;-60
2022/07/22 01:38:30;;;;;;;6.88;2.10;;;16.10;99.90;;;;;;5034777;28;20515;-59
2022/07/22 01:40:56;;;;;;;6.60;2.30;;;16.10;99.90;;;;;;5032194;28;20534;-61
2022/07/22 01:43:22;;;;;;;7.38;2.28;;;16.10;99.90;;;;;;5035757;28;20045;-60
2022/07/22 01:45:51;;;;;;;5.85;1.90;;;16.10;99.90;;;;;;5032206;28;20384;-60
2022/07/22 01:48:17;;;;;;;6.80;2.47;;;16.10;99.90;;;;;;5029522;28;20044;-59
2022/07/22 01:50:43;;;;;;;8.07;2.30;;;16.10;99.90;;;;;;5023602;28;20045;-60
2022/07/22 01:53:09;;;;;;;6.05;2.35;;;16.10;99.90;;;;;;5035240;28;20450;-60
2022/07/22 01:55:35;;;;;;;5.68;2.17;;;16.00;99.90;;;;;;5034633;28;20133;-60
2022/07/22 01:58:01;;;;;;;8.05;2.13;;;16.00;99.90;;;;;;5035447;28;20033;-60
2022/07/22 02:00:27;;;;;;;7.00;2.00;;;16.00;99.90;;;;;;5016292;28;20045;-60
2022/07/22 02:02:52;;;;;;;8.82;2.05;;;16.00;99.90;;;;;;5023769;28;20633;-60
2022/07/22 02:05:18;;;;;;;6.50;2.40;;;16.00;99.90;;;;;;4984254;28;20060;-60
2022/07/22 02:07:44;;;;;;;9.27;2.50;;;16.00;99.90;;;;;;5034699;28;20061;-60
2022/07/22 02:10:10;;;;;;;5.97;1.98;;;16.00;99.90;;;;;;5034609;28;20041;-60
2022/07/22 02:12:36;;;;;;;10.43;2.20;;;16.00;99.90;;;;;;5024435;28;20051;-59
2022/07/22 02:15:02;;;;;;;6.13;2.25;;;16.00;99.90;;;;;;5014581;28;20045;-60
2022/07/22 02:17:28;;;;;;;12.30;2.45;;;16.00;99.90;;;;;;5032204;28;20596;-60
2022/07/22 02:19:54;;;;;;;8.02;2.03;;;16.00;99.90;;;;;;5033056;28;20580;-60
2022/07/22 02:22:20;;;;;;;8.02;2.30;;;16.00;99.90;;;;;;5032874;28;20407;-60
2022/07/22 02:24:46;;;;;;;9.00;2.10;;;16.00;99.90;;;;;;5031700;28;20480;-61
2022/07/22 02:27:12;;;;;;;7.72;2.35;;;16.00;99.90;;;;;;5034223;28;20151;-60
2022/07/22 02:29:37;;;;;;;7.82;2.10;;;16.00;99.90;;;;;;5033057;28;20407;-59
2022/07/22 02:32:04;;;;;;;9.77;2.55;;;16.10;99.90;;;;;;5028465;28;20380;-60
2022/07/22 02:34:29;;;;;;;10.05;2.13;;;16.10;99.90;;;;;;5021740;28;20451;-59
2022/07/22 02:36:55;;;;;;;5.55;1.95;;;16.10;99.90;;;;;;5034220;28;20138;-60
2022/07/22 02:39:21;;;;;;;7.32;2.40;;;16.00;99.90;;;;;;5005063;28;20041;-59
2022/07/22 02:41:47;;;;;;;8.88;2.13;;;16.10;99.90;;;;;;5031174;28;20041;-59
2022/07/22 02:44:13;;;;;;;10.45;2.30;;;16.00;99.90;;;;;;5014759;28;20045;-59
2022/07/22 02:46:39;;;;;;;8.75;2.22;;;16.00;99.90;;;;;;5030743;28;20400;-60
2022/07/22 02:49:05;;;;;;;6.30;2.10;;;16.00;99.90;;;;;;5031474;28;20399;-60
2022/07/22 02:51:31;;;;;;;8.95;2.13;;;16.00;99.90;;;;;;5018302;28;20056;-59
2022/07/22 02:53:57;;;;;;;3.78;1.60;;;16.00;99.90;;;;;;5032312;28;20419;-59
2022/07/22 02:56:24;;;;;;;6.07;2.38;;;16.00;99.90;;;;;;5029688;28;20045;-60
2022/07/22 02:58:51;;;;;;;5.28;1.95;;;16.00;99.90;;;;;;5033121;28;20046;-59
2022/07/22 03:01:19;;;;;;;6.57;2.20;;;16.00;99.90;;;;;;5033402;28;20037;-59
2022/07/22 03:03:45;;;;;;;10.85;2.10;;;16.00;99.90;;;;;;5029544;28;20131;-60
2022/07/22 03:06:11;;;;;;;9.13;1.85;;;15.90;99.90;;;;;;5030705;28;20091;-60
2022/07/22 03:08:38;;;;;;;4.07;1.83;;;15.90;99.90;;;;;;5031215;28;20083;-60
2022/07/22 03:11:04;;;;;;;6.35;2.30;;;15.90;99.90;;;;;;5018439;28;20450;-60
2022/07/22 03:13:30;;;;;;;10.48;2.20;;;15.90;99.90;;;;;;5035089;28;20052;-60
2022/07/22 03:15:55;;;;;;;4.82;2.08;;;15.90;99.90;;;;;;4975700;28;20044;-60
2022/07/22 03:18:21;;;;;;;5.30;1.73;;;15.90;99.90;;;;;;5006019;28;20053;-60
2022/07/22 03:20:47;;;;;;;7.40;1.90;;;15.90;99.90;;;;;;5003297;28;20063;-60
2022/07/22 03:23:13;;;;;;;7.90;2.15;;;15.80;99.90;;;;;;5017422;28;20380;-60
2022/07/22 03:25:39;;;;;;;8.50;2.10;;;15.90;99.90;;;;;;5005242;28;20102;-60
2022/07/22 03:28:06;;;;;;;5.55;2.17;;;15.80;99.90;;;;;;5038203;28;20052;-60
2022/07/22 03:30:32;;;;;;;7.72;1.90;;;15.80;99.90;;;;;;5003261;28;20045;-60
2022/07/22 03:32:58;;;;;;;9.43;2.28;;;15.80;99.90;;;;;;5032228;28;20064;-60
2022/07/22 03:35:24;;;;;;;9.77;2.42;;;15.80;99.90;;;;;;5024025;28;20120;-60
2022/07/22 03:37:50;;;;;;;9.70;2.53;;;15.80;99.90;;;;;;5030831;28;20053;-60
2022/07/22 03:40:16;;;;;;;5.35;2.00;;;15.80;99.90;;;;;;5037741;28;20049;-60
2022/07/22 03:42:42;;;;;;;7.82;2.00;;;15.70;99.90;;;;;;5034984;28;20053;-59
2022/07/22 03:45:09;;;;;;;9.98;2.17;;;15.80;99.90;;;;;;5023669;28;20491;-60
2022/07/22 03:47:35;;;;;;;9.07;2.70;;;15.80;99.90;;;;;;5038237;28;20080;-60
2022/07/22 03:50:01;;;;;;;14.05;2.67;;;15.80;99.90;;;;;;5033772;28;20126;-60
2022/07/22 03:52:28;;;;;;;10.70;2.35;;;15.80;99.90;;;;;;5035596;28;20877;-60
2022/07/22 03:54:54;;;;;;;9.57;2.22;;;15.80;99.90;;;;;;5036946;28;20438;-60
2022/07/22 03:57:20;;;;;;;12.20;2.55;;;15.80;99.90;;;;;;5008294;28;20069;-60
2022/07/22 03:59:46;;;;;;;11.45;2.78;;;15.80;99.90;;;;;;5018840;28;20060;-60
2022/07/22 04:02:12;;;;;;;8.15;2.10;;;15.80;99.90;;;;;;5015991;28;20049;-61
2022/07/22 04:04:38;;;;;;;6.40;2.20;;;15.80;99.90;;;;;;5008701;28;20498;-60
2022/07/22 04:07:04;;;;;;;5.10;1.92;;;15.80;99.90;;;;;;5012057;28;20053;-59
2022/07/22 04:09:30;;;;;;;5.85;2.13;;;15.90;99.90;;;;;;5018257;28;20590;-60
2022/07/22 04:11:56;;;;;;;9.10;2.60;;;15.80;99.90;;;;;;5033834;28;20384;-60
2022/07/22 04:14:22;;;;;;;5.68;2.20;;;15.80;99.90;;;;;;5031862;28;20051;-60
2022/07/22 04:16:48;;;;;;;9.68;2.20;;;15.80;99.90;;;;;;5013626;28;20055;-61
2022/07/22 04:19:14;;;;;;;5.28;2.03;;;15.80;99.90;;;;;;5003102;28;20471;-60
2022/07/22 04:21:40;;;;;;;8.82;1.92;;;15.80;99.90;;;;;;4999468;28;20408;-60
2022/07/22 04:24:06;;;;;;;8.38;2.13;;;15.80;99.90;;;;;;5025582;28;20037;-61
2022/07/22 04:26:32;;;;;;;9.65;2.13;;;15.90;99.90;;;;;;5027097;28;20490;-60
2022/07/22 04:28:58;;;;;;;9.25;2.10;;;15.90;99.90;;;;;;5017492;28;20057;-60
2022/07/22 04:31:24;;;;;;;8.68;2.30;;;15.80;99.90;;;;;;4999100;28;20045;-60
2022/07/22 04:33:50;;;;;;;12.20;2.58;;;15.80;99.90;;;;;;5016131;28;20067;-60
2022/07/22 04:36:16;;;;;;;10.60;2.22;;;15.80;99.90;;;;;;5022999;28;20171;-61
2022/07/22 04:38:42;;;;;;;6.22;1.90;;;15.80;99.90;;;;;;5006935;28;20067;-60
2022/07/22 04:41:08;;;;;;;9.55;2.15;;;15.80;99.90;;;;;;5036394;28;21566;-60
2022/07/22 04:43:33;;;;;;;5.45;1.95;;;15.80;99.90;;;;;;5034723;28;20040;-59
2022/07/22 04:46:00;;;;;;;9.00;2.22;;;15.90;99.90;;;;;;5030421;28;20056;-60
2022/07/22 04:48:26;;;;;;;8.07;2.03;;;15.90;99.90;;;;;;5013628;28;20045;-60
2022/07/22 04:50:51;;;;;;;9.05;1.90;;;15.80;99.90;;;;;;5025766;28;20793;-60
2022/07/22 04:53:17;;;;;;;8.48;1.98;;;15.80;99.90;;;;;;5004693;28;20180;-60
2022/07/22 04:55:43;;;;;;;7.60;1.75;;;15.90;99.90;;;;;;5030733;28;20147;-61
2022/07/22 04:58:09;;;;;;;8.05;2.03;;;15.90;99.90;;;;;;5000852;28;20499;-61
2022/07/22 05:00:35;;;;;;;4.38;1.70;;;15.80;99.90;;;;;;5035591;28;20047;-60
2022/07/22 05:03:00;;;;;;;7.63;1.80;;;15.90;99.90;;;;;;5031350;28;20514;-60
2022/07/22 05:05:26;;;;;;;6.55;2.53;;;15.90;99.90;;;;;;5032571;28;20662;-60
2022/07/22 05:07:52;;;;;;;5.32;1.60;;;15.90;99.90;;;;;;5032331;28;20790;-61
2022/07/22 05:10:18;;;;;;;3.50;1.60;;;15.90;99.90;;;;;;5018637;28;20045;-61
2022/07/22 05:12:44;;;;;;;4.50;1.73;;;15.90;99.90;;;;;;5016365;28;20068;-60
2022/07/22 05:15:10;;;;;;;7.22;2.03;;;15.90;99.90;;;;;;5013538;28;20048;-60
2022/07/22 05:17:35;;;;;;;4.05;1.33;;;15.90;99.90;;;;;;5029184;28;20050;-60
2022/07/22 05:20:04;;;;;;;4.63;1.90;;;16.00;99.90;;;;;;5029672;28;20068;-66
2022/07/22 05:22:30;;;;;;;6.63;1.88;;;16.00;99.90;;;;;;5035801;28;20107;-61
2022/07/22 05:24:56;;;;;;;8.45;1.70;;;16.00;99.90;;;;;;5032219;28;20457;-60
2022/07/22 05:27:22;;;;;;;6.40;1.90;;;16.00;99.90;;;;;;5031291;28;20061;-60
2022/07/22 05:29:47;;;;;;;6.00;1.95;;;16.00;99.90;;;;;;5036324;28;20521;-60
2022/07/22 05:32:14;;;;;;;4.57;1.67;;;16.00;99.90;;;;;;5016795;28;20484;-60
2022/07/22 05:34:40;;;;;;;8.00;2.03;;;16.10;99.90;;;;;;5037319;28;20041;-60
2022/07/22 05:37:05;;;;;;;5.43;1.70;;;16.10;99.90;;;;;;5030445;28;20091;-60
2022/07/22 05:39:31;;;;;;;5.78;1.88;;;16.10;99.90;;;;;;5026270;28;20041;-59
2022/07/22 05:41:57;;;;;;;7.70;2.00;;;16.20;99.90;;;;;;5031400;28;20072;-61
2022/07/22 05:44:23;;;;;;;4.60;1.77;;;16.20;99.90;;;;;;5029515;28;22715;-61
2022/07/22 05:46:49;;;;;;;6.00;2.10;;;16.30;99.90;;;;;;5022258;28;20045;-60
2022/07/22 05:49:15;;;;;;;5.90;1.92;;;16.30;99.90;;;;;;5024735;28;21202;-61
2022/07/22 05:51:40;;;;;;;7.82;2.15;;;16.40;99.90;;;;;;5030432;28;20042;-60
2022/07/22 05:54:07;;;;;;;6.18;1.95;;;16.30;99.90;;;;;;5023805;28;20044;-61
2022/07/22 05:56:32;;;;;;;6.55;1.80;;;16.30;99.90;;;;;;5026162;28;20060;-59
2022/07/22 05:58:59;;;;;;;6.88;1.92;;;16.40;99.90;;;;;;5033115;28;20739;-60
2022/07/22 06:01:24;;;;;;;7.53;1.88;;;16.40;99.90;;;;;;5031483;28;20049;-60
2022/07/22 06:03:50;;;;;;;4.20;1.90;;;16.40;99.90;;;;;;5014454;28;20056;-60
2022/07/22 06:06:16;;;;;;;5.10;1.80;;;16.40;99.90;;;;;;5021239;28;20763;-61
2022/07/22 06:08:42;;;;;;;5.90;1.73;;;16.50;99.90;;;;;;5032283;28;20045;-61
2022/07/22 06:11:08;;;;;;;4.93;1.92;;;16.50;99.90;;;;;;5013646;28;20049;-61
2022/07/22 06:13:34;;;;;;;4.20;1.70;;;16.50;99.90;;;;;;5007188;28;20082;-61
2022/07/22 06:16:00;;;;;;;5.38;1.75;;;16.60;99.90;;;;;;4995250;28;20084;-60
2022/07/22 06:18:26;;;;;;;6.32;1.85;;;16.60;99.90;;;;;;4995528;28;20127;-60
2022/07/22 06:20:52;;;;;;;4.82;1.73;;;16.60;99.90;;;;;;5028207;28;20048;-61
2022/07/22 06:23:18;;;;;;;4.07;1.70;;;16.70;99.90;;;;;;5031364;28;20610;-60
2022/07/22 06:25:44;;;;;;;7.32;1.75;;;16.70;99.90;;;;;;5034107;28;20450;-60
2022/07/22 06:28:11;;;;;;;5.40;1.90;;;16.80;99.90;;;;;;5017222;28;20510;-60
2022/07/22 06:30:37;;;;;;;6.82;1.80;;;16.80;99.90;;;;;;5032396;28;20115;-61
2022/07/22 06:33:02;;;;;;;9.80;2.05;;;16.80;99.90;;;;;;5003789;28;20072;-60
2022/07/22 06:35:28;;;;;;;6.00;1.63;;;16.90;99.90;;;;;;5016375;28;20500;-61
2022/07/22 06:37:54;;;;;;;6.10;1.73;;;16.90;99.90;;;;;;5034394;28;20053;-60
2022/07/22 06:40:20;;;;;;;7.80;2.20;;;16.90;99.90;;;;;;5018247;28;20124;-61
2022/07/22 06:42:46;;;;;;;5.55;1.80;;;17.00;99.90;;;;;;5033431;28;20499;-59
2022/07/22 06:45:12;;;;;;;7.50;1.90;;;17.10;99.90;;;;;;5032511;28;20403;-60
2022/07/22 06:47:38;;;;;;;5.80;1.73;;;17.10;99.90;;;;;;5026574;28;20504;-60
2022/07/22 06:50:05;;;;;;;8.20;1.75;;;17.20;99.90;;;;;;5014534;28;20080;-59
2022/07/22 06:52:31;;;;;;;9.10;1.60;;;17.20;99.90;;;;;;5014521;28;20128;-60
2022/07/22 06:54:57;;;;;;;7.57;1.63;;;17.20;99.90;;;;;;5029138;28;20381;-59
2022/07/22 06:57:23;;;;;;;4.00;1.23;;;17.20;99.90;;;;;;5012668;28;20127;-60
2022/07/22 06:59:50;;;;;;;4.40;1.17;;;17.20;99.90;;;;;;5012901;28;20136;-60
2022/07/22 07:02:16;;;;;;;5.20;1.40;;;17.20;99.90;;;;;;5023047;28;21298;-60
2022/07/22 07:04:42;;;;;;;7.47;1.35;;;17.30;99.90;;;;;;5027985;28;20475;-61
2022/07/22 07:07:08;;;;;;;2.13;1.20;;;17.30;99.90;;;;;;5017262;28;20049;-60
2022/07/22 07:09:34;;;;;;;3.13;1.20;;;17.30;99.90;;;;;;5034347;28;20118;-60
2022/07/22 07:12:00;;;;;;;3.83;1.42;;;17.40;99.90;;;;;;5037079;28;20372;-60
2022/07/22 07:14:26;;;;;;;2.88;1.20;;;17.40;99.90;;;;;;5015117;28;20041;-59
2022/07/22 07:16:52;;;;;;;4.57;1.33;;;17.50;99.90;;;;;;5015684;28;20407;-60
2022/07/22 07:19:19;;;;;;;3.60;1.27;;;17.50;99.90;;;;;;5011822;28;20060;-59
2022/07/22 07:21:45;;;;;;;4.63;1.40;;;17.50;99.90;;;;;;5028689;28;20052;-61
2022/07/22 07:24:11;;;;;;;4.97;2.05;;;17.50;99.90;;;;;;5013853;28;20049;-60
2022/07/22 07:26:38;;;;;;;3.20;1.20;;;17.60;99.90;;;;;;5013658;28;20107;-60
2022/07/22 07:29:04;;;;;;;6.53;1.52;;;17.60;99.90;;;;;;5031716;28;20139;-59
2022/07/22 07:31:30;;;;;;;5.53;1.27;;;17.70;99.90;;;;;;5010950;28;20049;-60
2022/07/22 07:33:56;;;;;;;6.20;1.63;;;17.70;99.90;;;;;;5024852;28;20138;-60
2022/07/22 07:36:22;;;;;;;4.50;1.35;;;17.80;99.90;;;;;;5009006;28;20045;-60
2022/07/22 07:38:48;;;;;;;6.32;1.27;;;17.80;99.90;;;;;;5024594;28;20610;-60
2022/07/22 07:41:15;;;;;;;5.78;1.30;;;17.80;99.90;;;;;;5017253;28;20056;-59
2022/07/22 07:43:41;;;;;;;5.95;1.35;;;17.90;99.90;;;;;;5025731;28;20041;-60
2022/07/22 07:46:07;;;;;;;6.00;1.25;;;17.90;99.90;;;;;;5023102;28;20052;-61
2022/07/22 07:48:33;;;;;;;5.70;1.08;;;17.90;99.90;;;;;;5037659;28;20507;-60
2022/07/22 07:50:59;;;;;;;4.30;1.30;;;17.90;99.90;;;;;;5017133;28;20502;-61
2022/07/22 07:53:25;;;;;;;4.85;1.02;;;18.00;99.90;;;;;;5025174;28;20041;-60
2022/07/22 07:55:51;;;;;;;4.65;1.40;;;18.00;99.90;;;;;;5000535;28;20075;-61
2022/07/22 07:58:17;;;;;;;4.20;1.13;;;18.10;99.90;;;;;;5024452;28;20509;-60
2022/07/22 08:00:42;;;;;;;5.18;1.23;;;18.20;99.90;;;;;;4992832;28;20045;-60
2022/07/22 08:03:09;;;;;;;4.65;1.15;;;18.20;99.90;;;;;;5030671;28;20049;-60
2022/07/22 08:05:35;;;;;;;4.97;1.20;;;18.30;99.90;;;;;;5035911;28;20331;-61
2022/07/22 08:08:02;;;;;;;5.63;1.65;;;18.30;99.90;;;;;;5014009;28;20049;-60
2022/07/22 08:10:28;;;;;;;5.32;1.38;;;18.30;99.90;;;;;;5033650;28;20045;-59
2022/07/22 08:12:57;;;;;;;4.32;1.17;;;18.30;99.90;;;;;;5029528;28;20068;-61
2022/07/22 08:15:24;;;;;;;6.18;1.63;;;18.30;99.90;;;;;;5011809;28;20106;-59
2022/07/22 08:17:50;;;;;;;7.65;1.25;;;18.30;99.90;;;;;;5032818;28;20508;-61
2022/07/22 08:20:16;;;;;;;4.78;1.70;;;18.30;99.90;;;;;;5008827;28;20060;-60
2022/07/22 08:22:41;;;;;;;5.55;1.75;;;18.30;99.90;;;;;;5015206;28;20052;-60
2022/07/22 08:25:08;;;;;;;2.33;0.93;;;18.30;99.90;;;;;;5028965;28;20052;-60
2022/07/22 08:27:34;;;;;;;4.43;1.30;;;18.30;99.90;;;;;;5017365;28;20068;-59
2022/07/22 08:30:04;;;;;;;4.10;1.20;;;18.20;99.90;;;;;;5016290;28;20520;-60
2022/07/22 08:32:30;;;;;;;6.22;1.58;;;18.30;99.90;;;;;;5007624;28;20157;-61
2022/07/22 08:34:56;;;;;;;5.00;1.60;;;18.30;99.90;;;;;;5034026;28;20388;-60
2022/07/22 08:37:22;;;;;;;10.55;1.50;;;18.30;99.90;;;;;;5034321;28;20038;-60
2022/07/22 08:39:47;;;;;;;9.52;1.60;;;18.30;99.90;;;;;;5011450;28;20045;-61
2022/07/22 08:42:13;;;;;;;6.60;1.73;;;18.30;99.90;;;;;;5034876;28;20126;-61
2022/07/22 08:44:40;;;;;;;6.80;1.58;;;18.30;99.90;;;;;;5019070;28;20053;-61
2022/07/22 08:47:06;;;;;;;6.25;1.33;;;18.20;99.90;;;;;;5027250;28;20123;-61
2022/07/22 08:49:32;;;;;;;5.93;1.30;;;18.20;99.90;;;;;;5014293;28;20614;-60
2022/07/22 08:51:58;;;;;;;5.07;1.40;;;18.20;99.90;;;;;;5005988;28;20054;-60
2022/07/22 08:54:23;;;;;;;5.32;1.50;;;18.30;99.90;;;;;;5011135;28;20121;-60
2022/07/22 08:56:51;;;;;;;7.53;1.50;;;18.30;99.90;;;;;;5024947;28;20048;-59
2022/07/22 08:59:17;;;;;;;5.75;1.40;;;18.20;99.90;;;;;;5017034;28;20492;-61
2022/07/22 09:02:03;;;;;;;7.75;1.25;;;18.30;99.90;;;;;;5012632;28;20818;-60
2022/07/22 09:04:31;;;;;;;9.73;1.60;;;18.30;99.90;;;;;;5006508;28;20471;-60
2022/07/22 09:06:57;;;;;;;7.05;1.50;;;18.30;99.90;;;;;;5026419;28;20126;-60
2022/07/22 09:09:34;;;;;;;4.50;1.40;;;18.30;99.90;;;;;;5025198;28;20045;-60
2022/07/22 09:12:08;;;;;;;5.28;1.83;;;18.40;99.90;;;;;;5033002;28;20044;-60
2022/07/22 09:14:47;;;;;;;5.50;1.20;;;18.50;99.90;;;;;;5023053;28;20060;-61
2022/07/22 09:17:24;;;;;;;4.07;1.20;;;18.60;99.90;;;;;;5031279;28;20049;-60
2022/07/22 09:19:50;;;;;;;5.97;1.25;;;18.70;99.90;;;;;;5009510;28;20048;-61
2022/07/22 09:22:37;;;;;;;7.45;1.48;;;18.80;99.90;;;;;;5011135;28;20056;-61
2022/07/22 09:25:25;;;;;;;2.53;1.20;;;18.80;99.90;;;;;;5010198;28;20124;-61
2022/07/22 09:27:53;;;;;;;2.92;1.20;;;18.80;99.90;;;;;;5008404;28;20103;-61
2022/07/22 09:30:22;;;;;;;7.03;1.77;;;18.80;99.90;;;;;;5035427;28;20052;-60
2022/07/22 09:32:49;;;;;;;10.23;1.38;;;18.80;99.80;;;;;;5015035;28;20041;-60
2022/07/22 09:35:16;;;;;;;3.85;1.25;;;18.70;99.80;;;;;;5018388;28;20092;-60
2022/07/22 09:38:03;;;;;;;9.63;1.48;;;18.60;99.80;;;;;;5032583;28;20043;-61
2022/07/22 09:40:35;;;;;;;3.92;1.00;;;18.60;99.90;;;;;;5032954;28;20072;-61
2022/07/22 09:43:04;;;;;;;5.20;1.38;;;18.60;99.90;;;;;;5014701;28;20045;-61
2022/07/22 09:45:31;;;;;;;2.58;1.02;;;18.60;99.90;;;;;;5016272;28;20045;-61
2022/07/22 09:47:59;;;;;;;2.92;1.10;;;18.70;99.90;;;;;;5030441;28;20085;-61
2022/07/22 09:50:34;;;;;;;4.40;1.00;;;18.80;99.70;;;;;;5035356;28;20068;-61
2022/07/22 09:53:00;;;;;;;3.85;1.20;;;18.80;99.30;;;;;;5027072;28;20399;-61
2022/07/22 09:55:28;;;;;;;8.32;1.10;;;18.80;99.10;;;;;;5011261;28;20045;-60
2022/07/22 09:57:55;;;;;;;3.67;0.90;;;18.90;98.90;;;;;;5017817;28;20052;-61
2022/07/22 10:00:26;;;;;;;3.30;0.90;;;19.00;98.60;;;;;;5012680;28;20085;-61
2022/07/22 10:02:58;;;;;;;3.95;1.10;;;19.00;98.30;;;;;;5033351;28;20049;-60
2022/07/22 10:05:26;;;;;;;6.28;1.10;;;19.20;98.10;;;;;;5030660;28;20110;-61
2022/07/22 10:07:53;;;;;;;2.42;0.80;;;19.20;97.80;;;;;;5014545;28;20049;-60
2022/07/22 10:10:21;;;;;;;5.15;1.00;;;19.30;97.60;;;;;;5011316;28;20423;-61
2022/07/22 10:12:49;;;;;;;3.97;1.05;;;19.40;97.30;;;;;;5027386;28;20049;-61
2022/07/22 10:15:15;;;;;;;2.15;1.05;;;19.50;96.80;;;;;;5026380;28;20049;-61
2022/07/22 10:17:51;;;;;;;1.73;0.70;;;19.70;97.00;;;;;;5009713;28;20049;-61
2022/07/22 10:20:19;;;;;;;2.53;1.02;;;19.80;96.50;;;;;;5017434;28;20090;-60
2022/07/22 10:22:49;;;;;;;4.35;1.10;;;19.90;96.40;;;;;;5011462;28;20714;-60
2022/07/22 10:25:15;;;;;;;4.30;1.13;;;20.10;96.30;;;;;;5027401;28;20045;-61
2022/07/22 10:27:51;;;;;;;2.70;0.82;;;20.20;96.20;;;;;;5010768;28;20423;-61
2022/07/22 10:30:31;;;;;;;2.05;0.70;;;20.20;95.80;;;;;;5027693;28;20045;-60
2022/07/22 10:33:14;;;;;;;8.50;0.95;;;20.20;95.80;;;;;;4999415;28;20488;-61
2022/07/22 10:35:43;;;;;;;5.45;0.82;;;20.20;95.70;;;;;;5033544;28;20092;-61
2022/07/22 10:38:13;;;;;;;1.17;0.80;;;20.20;95.90;;;;;;5025450;28;20049;-60
2022/07/22 10:40:59;;;;;;;3.75;1.15;;;20.10;96.00;;;;;;5028459;28;20168;-60
2022/07/22 10:43:29;;;;;;;5.38;1.23;;;20.10;96.20;;;;;;5018734;28;20057;-60
2022/07/22 10:45:58;;;;;;;3.40;1.20;;;20.10;96.30;;;;;;5024012;28;20086;-61
2022/07/22 10:48:24;;;;;;;3.55;0.93;;;20.20;96.60;;;;;;5024521;28;20073;-62
2022/07/22 10:51:04;;;;;;;2.75;0.80;;;20.20;96.50;;;;;;5010952;28;20041;-61
2022/07/22 10:54:02;;;;;;;3.22;0.75;;;20.20;96.60;;;;;;5023143;28;20447;-61
2022/07/22 10:56:37;;;;;;;2.63;0.70;;;20.20;96.30;;;;;;5006850;28;20386;-61
2022/07/22 10:59:13;;;;;;;1.23;0.75;;;20.20;96.30;;;;;;5007006;28;20110;-62
2022/07/22 11:01:42;;;;;;;6.25;0.88;;;20.20;96.70;;;;;;5026453;28;20045;-61
2022/07/22 11:04:23;;;;;;;2.65;0.70;;;20.20;96.70;;;;;;5008351;28;20049;-61
2022/07/22 11:06:55;;;;;;;9.85;1.00;;;20.30;96.70;;;;;;5012965;28;20769;-62
2022/07/22 11:09:23;;;;;;;4.43;0.80;;;20.30;96.80;;;;;;5012709;28;20660;-60
2022/07/22 11:11:54;;;;;;;4.38;0.90;;;20.50;96.90;;;;;;5002060;28;20083;-62
2022/07/22 11:14:32;;;;;;;3.90;0.90;;;20.60;97.40;;;;;;5032190;28;20045;-61
2022/07/22 11:17:04;;;;;;;3.42;0.52;;;20.80;97.00;;;;;;5015640;28;20040;-61
2022/07/22 11:19:32;;;;;;;1.42;0.57;;;20.80;96.60;;;;;;5033167;28;20046;-61
2022/07/22 11:22:01;;;;;;;3.65;0.65;;;20.80;96.20;;;;;;5031023;28;20270;-61
2022/07/22 11:24:28;;;;;;;2.13;0.70;;;20.70;95.80;;;;;;5025757;28;20057;-61
2022/07/22 11:26:56;;;;;;;2.67;0.88;;;20.70;95.90;;;;;;5011443;28;20577;-60
2022/07/22 11:29:26;;;;;;;2.97;0.75;;;20.70;95.70;;;;;;5025860;28;20051;-61
2022/07/22 11:31:53;;;;;;;4.43;0.90;;;20.70;95.40;;;;;;5010513;28;20457;-61
2022/07/22 11:34:23;;;;;;;7.07;1.10;;;20.70;95.10;;;;;;5009678;28;20049;-61
2022/07/22 11:36:49;;;;;;;2.47;0.60;;;20.70;94.80;;;;;;5026636;28;20041;-60
2022/07/22 11:39:19;;;;;;;3.17;0.50;;;20.70;94.50;;;;;;5009601;28;20152;-60
2022/07/22 11:41:45;;;;;;;1.75;0.60;;;20.70;94.60;;;;;;5030797;28;20484;-61
2022/07/22 11:44:11;;;;;;;4.60;1.02;;;20.70;94.90;;;;;;5034153;28;20053;-60
2022/07/22 11:46:41;;;;;;;0.80;0.60;;;20.80;94.70;;;;;;5024512;28;20054;-61
2022/07/22 11:49:09;;;;;;;2.55;0.65;;;20.80;94.50;;;;;;5037589;28;20050;-61
2022/07/22 11:51:37;;;;;;;3.35;0.70;;;20.80;94.50;;;;;;5023159;28;20080;-60
2022/07/22 11:54:04;;;;;;;3.03;0.70;;;20.80;94.30;;;;;;5023295;28;20056;-60
2022/07/22 11:56:31;;;;;;;3.17;0.82;;;20.90;94.00;;;;;;5038342;28;20145;-61
2022/07/22 11:58:57;;;;;;;1.98;0.60;;;20.80;93.80;;;;;;5037311;28;20056;-61
2022/07/22 12:01:28;;;;;;;1.30;0.60;;;20.90;93.70;;;;;;5037463;28;20071;-60
2022/07/22 12:03:58;;;;;;;4.22;0.80;;;20.90;93.90;;;;;;5037535;28;20227;-60
2022/07/22 12:06:25;;;;;;;2.50;0.52;;;20.90;93.60;;;;;;5018871;28;20045;-60
2022/07/22 12:08:56;;;;;;;3.45;0.80;;;20.80;93.30;;;;;;5035928;28;20045;-60
2022/07/22 12:11:24;;;;;;;0.68;0.55;;;20.80;93.60;;;;;;5038386;28;20171;-60
2022/07/22 12:13:52;;;;;;;2.72;0.65;;;20.90;93.50;;;;;;5020118;28;20041;-60
2022/07/22 12:16:18;;;;;;;0.45;0.40;;;20.90;93.20;;;;;;5037720;28;20495;-61
2022/07/22 12:18:49;;;;;;;0.80;0.45;;;21.00;93.00;;;;;;5020053;28;20045;-60
2022/07/22 12:21:16;;;;;;;3.05;0.60;;;21.10;92.80;;;;;;5019726;28;20056;-60
2022/07/22 12:23:56;;;;;;;2.33;0.65;;;21.10;92.30;;;;;;5037872;28;20044;-60
2022/07/22 12:26:40;;;;;;;2.50;0.40;;;21.20;91.90;;;;;;5037573;28;20049;-60
2022/07/22 12:29:35;;;;;;;0.45;0.40;;;21.20;91.60;;;;;;5021100;28;20051;-61
2022/07/22 12:32:04;;;;;;;0.95;0.50;;;21.30;91.40;;;;;;5018283;28;20120;-60
2022/07/22 12:34:36;;;;;;;3.70;0.57;;;21.30;91.30;;;;;;5037828;28;20479;-60
2022/07/22 12:37:14;;;;;;;2.45;0.70;;;21.30;91.20;;;;;;5020185;28;20041;-60
2022/07/22 12:40:05;;;;;;;0.95;0.57;;;21.40;90.90;;;;;;5034342;28;20038;-61
2022/07/22 12:42:43;;;;;;;2.75;0.60;;;21.40;90.90;;;;;;5036195;28;20095;-60
2022/07/22 12:45:15;;;;;;;1.17;0.57;;;21.40;90.80;;;;;;5037224;28;20034;-61
2022/07/22 12:48:00;;;;;;;;;;;21.30;90.80;;;;;;5037906;28;20129;-60